Flight Track Log - Related Links

Times and Time Zones

All times are in EDT time to prevent confusion due to time zone crossing. See the N779NC flight status page for this flight to view local times or setup timezone preferences in your user account.

Time Position Orientation Groundspeed Altitude Reporting Facility
EDT Latitude Longitude Course Direction KTS MPH feet Rate Location/Type
Sun 12:26:47 PM 34.7411 -92.2147 90° East 139 160 1,200  Level Memphis Center
Sun 12:28:00 PM 34.6833 -92.0925 90° East  Level FlightAware
Sun 12:28:54 PM 34.7308 -92.0553 90° East 247 284 4,000  Level Memphis Center
Sun 12:29:49 PM 34.7258 -91.9742 94° East 274 315 6,100 2,085 Climbing Memphis Center
Sun 12:30:00 PM 34.7398 -91.7279 78° East  Level FlightAware
Sun 12:31:00 PM 34.7617 -91.5969 78° East  Level FlightAware
Sun 12:31:00 PM 34.7316 -91.8162 87° East  Level FlightAware
Sun 12:31:38 PM 34.7467 -91.8003 87° East 279 321 9,700  Level Memphis Center
Sun 12:32:00 PM 34.7833 -91.4658 90° East  Level FlightAware
Sun 12:32:38 PM 34.7561 -91.7069 83° East 294 338 11,400  Level Memphis Center
Sun 12:33:38 PM 34.7614 -91.5933 87° East 321 369 12,400 1,250 Climbing Memphis Center
Sun 12:34:38 PM 34.7708 -91.4694 85° East 360 414 13,900 1,550 Climbing Memphis Center
Sun 12:35:38 PM 34.7844 -91.3306 83° East 374 430 15,500 1,500 Climbing Memphis Center
Sun 12:36:38 PM 34.8000 -91.1992 82° East 387 445 16,900 1,400 Climbing Memphis Center
Sun 12:37:38 PM 34.8322 -91.0656 74° East 392 451 18,300 1,350 Climbing Memphis Center
Sun 12:38:38 PM 34.8581 -90.9292 77° East 405 466 19,600 1,250 Climbing Memphis Center
Sun 12:39:38 PM 34.8878 -90.7900 75° East 416 479 20,800 1,200 Climbing Memphis Center
Sun 12:40:38 PM 34.9194 -90.6483 75° East 422 486 22,000 1,200 Climbing Memphis Center
Sun 12:41:38 PM 34.9489 -90.5067 76° East 434 499 23,200 1,100 Climbing Memphis Center
Sun 12:42:38 PM 34.9697 -90.3544 80° East 439 505 24,200 950 Climbing Memphis Center
Sun 12:43:38 PM 34.9864 -90.2178 81° East 447 514 25,100 900 Climbing Memphis Center
Sun 12:44:38 PM 35.0050 -90.0681 81° East 447 514 26,000 836 Climbing Memphis Center
Sun 12:45:40 PM 35.0233 -89.9058 82° East 458 527 26,800 800 Climbing Memphis Center
Sun 12:46:38 PM 35.0058 -89.7308 97° East 463 533 27,600 814 Climbing Memphis Center
Sun 12:47:38 PM 34.9778 -89.5689 102° East 485 558 28,400 700 Climbing Memphis Center
Sun 12:48:38 PM 34.9494 -89.4069 102° East 485 558 29,000 300 Climbing Memphis Center
Sun 12:49:38 PM 34.9208 -89.2453 102° East 485 558 29,000  Level Memphis Center
Sun 12:50:38 PM 34.8944 -89.0886 102° East 485 558 29,000  Level Memphis Center
Sun 12:51:38 PM 34.8675 -88.9269 101° East 485 558 29,000  Level Memphis Center
Sun 12:52:38 PM 34.8450 -88.7858 101° East 485 558 29,000  Level Memphis Center
Sun 12:53:38 PM 34.8178 -88.6294 102° East 485 558 29,000  Level Memphis Center
Sun 12:55:38 PM 34.7714 -88.3194 100° East 468 539 29,000  Level Memphis Center
Sun 12:56:38 PM 34.7478 -88.1608 100° East 468 539 29,000  Level Memphis Center
Sun 12:57:38 PM 34.7261 -87.9969 99° East 486 559 29,000  Level Memphis Center
Sun 12:58:38 PM 34.7061 -87.8233 98° East 477 549 29,000  Level Memphis Center
Sun 12:59:38 PM 34.6964 -87.6644 94° East 477 549 29,000  Level Memphis Center
Sun 01:01:16 PM 34.6744 -87.4208 96° East 485 558 29,000  Level Atlanta Center
Sun 01:03:16 PM 34.6306 -87.1083 100° East 478 550 29,000  Level Atlanta Center
Sun 01:04:16 PM 34.5986 -86.9558 104° East 467 537 29,000 -50 Level Atlanta Center
Sun 01:05:16 PM 34.5625 -86.8033 106° East 467 537 28,900 -550 Descending Atlanta Center
Sun 01:06:16 PM 34.5156 -86.6581 111° Southeast 467 537 27,900 -1,000 Descending Atlanta Center
Sun 01:07:16 PM 34.4686 -86.5106 111° Southeast 467 537 26,900 -1,050 Descending Atlanta Center
Sun 01:08:16 PM 34.4233 -86.3656 111° Southeast 467 537 25,800 -1,150 Descending Atlanta Center
Sun 01:09:16 PM 34.3781 -86.2208 111° Southeast 461 531 24,600 -900 Descending Atlanta Center
Sun 01:10:16 PM 34.3347 -86.0789 110° East 454 522 24,000 -400 Descending Atlanta Center
Sun 01:11:16 PM 34.2992 -85.9397 107° East 448 516 23,800 -950 Descending Atlanta Center
Sun 01:12:16 PM 34.2764 -85.7986 101° East 437 503 22,100 -1,500 Descending Atlanta Center
Sun 01:13:16 PM 34.2553 -85.6622 101° East 423 487 20,800 -1,450 Descending Atlanta Center
Sun 01:14:16 PM 34.2383 -85.5239 98° East 423 487 19,200 -1,750 Descending Atlanta Center
Sun 01:15:16 PM 34.2231 -85.3853 98° East 413 475 17,300 -1,650 Descending Atlanta Center
Sun 01:16:16 PM 34.2014 -85.2594 102° East 395 455 15,900 -1,350 Descending Atlanta Center
Sun 01:17:16 PM 34.1631 -85.1208 108° East 390 449 14,600 -950 Descending Atlanta Center
Sun 01:18:16 PM 34.1078 -85.0047 120° Southeast 397 457 14,000 -300 Descending Atlanta Center
Sun 01:19:16 PM 34.0292 -84.9186 138° Southeast 392 451 14,000 -300 Level Atlanta Center
Sun 01:20:16 PM 33.9461 -84.8375 141° Southeast 386 444 13,400 -650 Descending Atlanta Center
Sun 01:21:16 PM 33.8653 -84.7542 139° Southeast 386 444 12,700 -650 Descending Atlanta Center
Sun 01:22:16 PM 33.7906 -84.6661 136° Southeast 381 438 12,100 -350 Descending Atlanta Center
Sun 01:23:16 PM 33.7367 -84.5783 126° Southeast 347 399 12,000 -571 Descending Atlanta Center
Sun 01:24:22 PM 33.7333 -84.4667 92° East 289 333 10,900 -1,143 Descending Atlanta TRACON
Sun 01:25:22 PM 33.7333 -84.3833 90° East 280 322 9,600 -1,550 Descending Atlanta TRACON
Sun 01:26:22 PM 33.7333 -84.3000 90° East 256 295 7,800 -1,800 Descending Atlanta TRACON

Login

Don't have an account? Register now (free) for customized features, flight alerts, and more!